CDT,Max TemperatureF,Mean TemperatureF,Min TemperatureF,Max Dew PointF,MeanDew PointF,Min DewpointF,Max Humidity, Mean Humidity, Min Humidity, Max Sea Level PressureIn, Mean Sea Level PressureIn, Min Sea Level PressureIn, Max VisibilityMiles, Mean VisibilityMiles, Min VisibilityMiles, Max Wind SpeedMPH, Mean Wind SpeedMPH, Max Gust SpeedMPH,PrecipitationIn, CloudCover, Events, WindDirDegrees
2013-4-1,50,41,31,34,22,15,76,52,28,30.33,30.24,30.04,10,10,10,26,12,36,0.00,4,,9
2013-4-2,54,41,27,22,19,16,63,44,24,30.38,30.31,30.26,10,10,10,14,5,18,0.00,0,,60
2013-4-3,51,40,29,29,24,22,78,54,30,30.38,30.32,30.26,10,10,9,15,4,17,0.00,0,,74
2013-4-4,65,47,28,36,29,24,85,56,27,30.25,30.17,30.07,10,9,6,12,3,19,0.00,0,,299
2013-4-5,73,53,33,40,36,30,89,59,28,30.19,30.05,29.83,10,8,2,23,9,30,0.00,0,,170
2013-4-6,78,64,50,46,42,39,59,42,25,29.81,29.73,29.66,10,10,8,24,13,33,0.00,0,,226
2013-4-7,77,61,44,58,48,39,89,62,35,29.86,29.75,29.65,10,9,2,24,8,32,0.59,5,Rain-Thunderstorm,153
2013-4-8,74,63,52,61,56,51,100,82,64,29.73,29.69,29.65,10,7,0,20,8,24,0.00,5,Fog-Rain,132
2013-4-9,76,58,40,63,57,40,86,75,64,29.87,29.70,29.59,10,8,2,25,12,33,0.34,8,Rain-Thunderstorm,138
2013-4-10,44,40,35,41,37,33,92,89,85,29.96,29.87,29.74,10,6,1,23,11,28,0.38,8,Rain-Thunderstorm,308
2013-4-11,43,39,34,32,28,25,89,71,53,29.87,29.80,29.75,10,10,5,23,12,29,0.00,8,,275
2013-4-12,56,44,32,33,28,25,78,58,38,30.06,29.94,29.83,10,10,10,20,10,26,0.00,3,,292
2013-4-13,69,51,32,47,38,31,92,66,39,30.07,29.91,29.66,10,10,7,23,8,28,0.00,3,,120
2013-4-14,72,62,52,51,44,31,62,49,36,29.74,29.54,29.46,10,10,10,32,15,47,T,3,,212
2013-4-15,53,48,43,40,31,26,76,57,38,30.04,29.88,29.73,10,10,10,17,9,22,T,8,,353
2013-4-16,49,45,41,36,31,29,65,58,50,30.17,30.11,30.04,10,10,10,21,13,25,T,7,Rain,48
2013-4-17,50,47,44,47,44,36,93,79,65,30.09,29.81,29.69,10,6,1,20,9,27,0.68,8,Rain-Thunderstorm,13
2013-4-18,44,40,36,41,34,25,92,76,59,30.00,29.78,29.64,10,6,2,26,16,34,0.17,8,Rain-Thunderstorm,314
2013-4-19,55,44,33,29,26,22,75,52,29,30.13,30.03,29.97,10,10,10,22,11,30,0.00,4,,291
2013-4-20,59,44,28,35,30,25,85,61,36,30.25,30.17,30.12,10,10,10,18,9,25,T,2,,96
2013-4-21,69,57,45,44,40,34,70,55,39,30.19,30.14,30.08,10,10,10,23,12,29,0.00,4,,153
2013-4-22,64,51,38,51,43,37,89,68,47,30.10,30.03,29.93,10,10,9,24,10,32,0.20,5,Rain,124
2013-4-23,40,37,33,36,30,28,89,80,70,30.24,30.15,30.07,10,5,1,23,14,32,0.43,8,Rain-Snow,343
2013-4-24,58,44,29,32,26,23,78,54,30,30.30,30.24,30.17,10,10,10,17,7,24,0.00,1,,266
2013-4-25,71,52,32,39,35,30,89,57,25,30.32,30.23,30.12,10,10,5,20,7,26,0.00,0,,182
2013-4-26,59,55,50,50,46,40,89,76,63,30.22,30.18,30.13,10,9,3,22,9,28,0.22,8,Rain-Thunderstorm,129
2013-4-27,60,52,44,49,47,45,93,79,64,30.20,30.13,30.03,10,8,2,12,5,14,0.11,7,Rain,37
2013-4-28,78,58,38,56,47,37,100,71,42,30.02,29.94,29.76,10,5,0,20,8,24,0.00,0,Fog,179
2013-4-29,88,70,51,62,57,48,89,63,36,29.80,29.69,29.58,10,10,7,22,12,31,0.00,0,,169
2013-4-30,86,76,66,58,55,52,63,52,40,29.80,29.68,29.61,10,10,10,24,14,39,0.00,0,,179